Terminal Aerodrome Forecast
Issued by NWS Green Bay, WI

Home | Current Version | Previous Version | Text Only | Print | Product List | Glossary Off
Versions: 1 2 3 4 5 6 7 8 9 10 11 12 13 14 15 16 17 18 19 20 21 22 23 24 25 26 27 28 29 30 31 32 33 34 35 36 37 38 39 40 41 42 43 44 45 46 47 48 49 50

751
FTUS43 KGRB 252148 AAB
TAFGRB
TAF AMD
KGRB 252148Z 2522/2618 07010G19KT 6SM -SHRA BR BKN035 OVC070
      TEMPO 2523/2603 2SM TSRA BKN018 OVC035CB
     FM260600 17005KT 4SM BR OVC009
     FM261500 22009KT P6SM BKN020=

USA.gov is the U.S. government's official web portal to all federal, state and local government web resources and services.